Time;durP1;ratioP1;P1;durP2;ratioP2;P2;SDS_P1;SDS_P2;PMS_P1;PMS_P2;Temp;Humidity;BMP_temperature;BMP_pressure;BME280_temperature;BME280_humidity;BME280_pressure;Samples;Min_cycle;Max_cycle;Signal;HPM_P1;HPM_P2
2022/03/07 00:00:39;;;;;;;;;;;;;;;-143.90;100.00;55210.50;2099487;28;20256;-65
2022/03/07 00:02:00;;;;;;;;;;;;;;;-143.90;100.00;55178.72;2097186;28;19920;-64
2022/03/07 00:03:21;;;;;;;;;;;;;;;-143.90;100.00;55202.56;2097950;28;20623;-64
2022/03/07 00:04:41;;;;;;;;;;;;;;;-143.90;100.00;55168.81;2096950;28;19920;-65
2022/03/07 00:06:02;;;;;;;;;;;;;;;-143.90;100.00;55224.41;2098920;28;19924;-64
2022/03/07 00:07:23;;;;;;;;;;;;;;;-143.90;100.00;55166.81;2098142;28;20391;-65
2022/03/07 00:08:43;;;;;;;;;;;;;;;-143.90;100.00;55202.56;2097534;28;19921;-65
2022/03/07 00:10:04;;;;;;;;;;;;;;;-143.90;100.00;55174.75;2097855;28;19927;-64
2022/03/07 00:11:25;;;;;;;;;;;;;;;-143.90;100.00;55206.53;2099272;27;19934;-64
2022/03/07 00:12:45;;;;;;;;;;;;;;;-143.90;100.00;55182.69;2105080;28;19927;-65
2022/03/07 00:14:06;;;;;;;;;;;;;;;-143.90;100.00;55192.63;2100960;28;20636;-65
2022/03/07 00:15:27;;;;;;;;;;;;;;;-143.90;100.00;55194.63;2097876;28;19920;-65
2022/03/07 00:16:47;;;;;;;;;;;;;;;-143.90;100.00;55202.56;2098629;28;20015;-64
2022/03/07 00:18:08;;;;;;;;;;;;;;;-143.90;100.00;55198.59;2097758;28;19994;-63
2022/03/07 00:19:29;;;;;;;;;;;;;;;-143.90;100.00;55186.69;2098562;28;20439;-64
2022/03/07 00:20:50;;;;;;;;;;;;;;;-143.90;100.00;55202.56;2105123;27;20753;-64
2022/03/07 00:22:10;;;;;;;;;;;;;;;-143.90;100.00;55186.69;2092334;28;20530;-64
2022/03/07 00:23:31;;;;;;;;;;;;;;;-143.90;100.00;55214.47;2095190;28;19979;-64
2022/03/07 00:24:51;;;;;;;;;;;;;;;-143.90;100.00;55198.59;2098315;28;20334;-64
2022/03/07 00:26:12;;;;;;;;;;;;;;;-143.90;100.00;55230.34;2098125;28;20011;-65
2022/03/07 00:27:33;;;;;;;;;;;;;;;-143.90;100.00;55242.28;2097119;28;19928;-64
2022/03/07 00:28:53;;;;;;;;;;;;;;;-143.90;100.00;55194.63;2098996;28;20341;-63
2022/03/07 00:30:15;;;;;;;;;;;;;;;-143.90;100.00;55190.66;2098101;28;19924;-64
2022/03/07 00:31:36;;;;;;;;;;;;;;;-143.90;100.00;55200.56;2099039;28;19924;-64
2022/03/07 00:32:58;;;;;;;;;;;;;;;-143.90;100.00;55170.78;2089292;28;19931;-64
2022/03/07 00:34:18;;;;;;;;;;;;;;;-143.90;100.00;55206.53;2095493;28;19920;-65
2022/03/07 00:35:39;;;;;;;;;;;;;;;-143.90;100.00;55200.56;2087540;28;19921;-64
2022/03/07 00:37:00;;;;;;;;;;;;;;;-143.90;100.00;55202.56;2095722;28;20015;-64
2022/03/07 00:38:20;;;;;;;;;;;;;;;-143.90;100.00;55208.50;2097958;28;19946;-64
2022/03/07 00:39:41;;;;;;;;;;;;;;;-143.90;100.00;55210.50;2098649;28;19926;-64
2022/03/07 00:41:02;;;;;;;;;;;;;;;-143.90;100.00;55194.63;2088785;28;20837;-64
2022/03/07 00:42:23;;;;;;;;;;;;;;;-143.90;100.00;55198.59;2096476;28;19920;-64
2022/03/07 00:43:44;;;;;;;;;;;;;;;-143.90;100.00;55234.31;2090274;28;20336;-64
2022/03/07 00:45:06;;;;;;;;;;;;;;;-143.90;100.00;55222.41;2096350;28;20360;-64
2022/03/07 00:46:26;;;;;;;;;;;;;;;-143.90;100.00;55188.66;2097953;28;19978;-64
2022/03/07 00:47:48;;;;;;;;;;;;;;;-143.90;100.00;55206.53;2088478;28;20019;-65
2022/03/07 00:49:08;;;;;;;;;;;;;;;-143.90;100.00;55198.59;2096327;28;20822;-65
2022/03/07 00:50:29;;;;;;;;;;;;;;;-143.90;100.00;55214.47;2105106;28;19959;-64
2022/03/07 00:51:50;;;;;;;;;;;;;;;-143.90;100.00;55178.72;2101347;28;20012;-64
2022/03/07 00:53:11;;;;;;;;;;;;;;;-143.90;100.00;55202.56;2090403;28;19927;-64
2022/03/07 00:54:32;;;;;;;;;;;;;;;-143.90;100.00;55242.28;2096036;28;19921;-64
2022/03/07 00:55:53;;;;;;;;;;;;;;;-143.90;100.00;55232.34;2088225;28;19956;-64
2022/03/07 00:57:14;;;;;;;;;;;;;;;-143.90;100.00;55206.53;2094186;28;19921;-64
2022/03/07 00:58:35;;;;;;;;;;;;;;;-143.90;100.00;55206.53;2088168;28;19925;-65
2022/03/07 00:59:56;;;;;;;;;;;;;;;-143.90;100.00;55180.72;2095351;28;19920;-64
2022/03/07 01:01:17;;;;;;;;;;;;;;;-143.90;100.00;55194.63;2089802;28;19924;-64
2022/03/07 01:02:38;;;;;;;;;;;;;;;-143.90;100.00;55194.63;2103081;28;20292;-64
2022/03/07 01:03:59;;;;;;;;;;;;;;;-143.90;100.00;55230.34;2099499;28;20001;-64
2022/03/07 01:05:20;;;;;;;;;;;;;;;-143.90;100.00;55224.41;2089325;28;19921;-64
2022/03/07 01:06:40;;;;;;;;;;;;;;;-143.90;100.00;55206.53;2093027;28;20367;-64
2022/03/07 01:08:02;;;;;;;;;;;;;;;-143.90;100.00;55194.63;2097742;28;19920;-65
2022/03/07 01:09:23;;;;;;;;;;;;;;;-143.90;100.00;55216.47;2113317;27;19924;-64
2022/03/07 01:10:43;;;;;;;;;;;;;;;-143.90;100.00;55180.72;2099797;28;20427;-65
2022/03/07 01:12:04;;;;;;;;;;;;;;;-143.90;100.00;55246.25;2097423;28;19920;-64
2022/03/07 01:13:25;;;;;;;;;;;;;;;-143.90;100.00;55162.84;2096956;28;19920;-64
2022/03/07 01:14:46;;;;;;;;;;;;;;;-143.90;100.00;55214.47;2095940;28;20011;-65
2022/03/07 01:16:07;;;;;;;;;;;;;;;-143.90;100.00;55194.63;2098574;28;19920;-64
2022/03/07 01:17:27;;;;;;;;;;;;;;;-143.90;100.00;55230.34;2088483;28;20009;-63
2022/03/07 01:18:48;;;;;;;;;;;;;;;-143.90;100.00;55174.75;2095371;28;19932;-65
2022/03/07 01:20:10;;;;;;;;;;;;;;;-143.90;100.00;55166.81;2099311;28;19920;-64
2022/03/07 01:21:30;;;;;;;;;;;;;;;-143.90;100.00;55170.78;2098615;28;19954;-65
2022/03/07 01:22:51;;;;;;;;;;;;;;;-143.90;100.00;55202.56;2096127;28;19920;-64
2022/03/07 01:24:12;;;;;;;;;;;;;;;-143.90;100.00;55186.69;2096684;28;19924;-65
2022/03/07 01:25:32;;;;;;;;;;;;;;;-143.90;100.00;55198.59;2098464;28;20018;-64
2022/03/07 01:26:53;;;;;;;;;;;;;;;-143.90;100.00;55214.47;2097970;28;19924;-65
2022/03/07 01:28:14;;;;;;;;;;;;;;;-143.90;100.00;55208.50;2098277;28;19924;-64
2022/03/07 01:29:35;;;;;;;;;;;;;;;-143.90;100.00;55166.81;2095509;28;19959;-63
2022/03/07 01:30:57;;;;;;;;;;;;;;;-143.90;100.00;55202.56;2097021;28;20030;-63
2022/03/07 01:32:17;;;;;;;;;;;;;;;-143.90;100.00;55238.31;2098333;28;19924;-63
2022/03/07 01:33:38;;;;;;;;;;;;;;;-143.90;100.00;55166.81;2099592;28;19924;-64
2022/03/07 01:34:59;;;;;;;;;;;;;;;-143.90;100.00;55214.47;2093163;28;19920;-64
2022/03/07 01:36:20;;;;;;;;;;;;;;;-143.90;100.00;55262.13;2096038;28;20471;-64
2022/03/07 01:37:40;;;;;;;;;;;;;;;-143.90;100.00;55194.63;2097287;28;20101;-64
2022/03/07 01:39:01;;;;;;;;;;;;;;;-143.90;100.00;55190.66;2096904;28;19931;-64
2022/03/07 01:40:22;;;;;;;;;;;;;;;-143.90;100.00;55198.59;2097007;28;20421;-64
2022/03/07 01:41:43;;;;;;;;;;;;;;;-143.90;100.00;55190.66;2098365;28;20497;-64
2022/03/07 01:43:06;;;;;;;;;;;;;;;-143.90;100.00;55182.69;2091239;28;19920;-65
2022/03/07 01:44:28;;;;;;;;;;;;;;;-143.90;100.00;55206.53;2102907;28;19924;-65
2022/03/07 01:45:49;;;;;;;;;;;;;;;-143.90;100.00;55166.81;2100369;28;20020;-63
2022/03/07 01:47:10;;;;;;;;;;;;;;;-143.90;100.00;55230.34;2097907;28;19920;-64
2022/03/07 01:48:31;;;;;;;;;;;;;;;-143.90;100.00;55186.69;2089008;28;19921;-64
2022/03/07 01:49:52;;;;;;;;;;;;;;;-143.90;100.00;55218.44;2096228;28;19920;-65
2022/03/07 01:51:14;;;;;;;;;;;;;;;-143.90;100.00;55188.66;2104985;28;19931;-64
2022/03/07 01:52:37;;;;;;;;;;;;;;;-143.90;100.00;55184.69;2093498;28;20381;-65
2022/03/07 01:53:58;;;;;;;;;;;;;;;-143.90;100.00;55220.44;2109685;27;20486;-64
2022/03/07 01:55:19;;;;;;;;;;;;;;;-143.90;100.00;55210.50;2102043;27;19926;-64
2022/03/07 01:56:49;;;;;;;;;;;;;;;-143.90;100.00;55162.84;2088781;28;19932;-64
2022/03/07 01:58:10;;;;;;;;;;;;;;;-143.90;100.00;55198.59;2086460;28;20458;-65
2022/03/07 01:59:37;;;;;;;;;;;;;;;-143.90;100.00;55186.69;2086795;28;19983;-64
2022/03/07 02:00:58;;;;;;;;;;;;;;;-143.90;100.00;55214.47;2103107;28;20092;-64
2022/03/07 02:02:18;;;;;;;;;;;;;;;-143.90;100.00;55186.69;2101474;28;19966;-63
2022/03/07 02:03:40;;;;;;;;;;;;;;;-143.90;100.00;55170.78;2112471;27;19920;-64
2022/03/07 02:05:03;;;;;;;;;;;;;;;-143.90;100.00;55186.69;2102758;28;19946;-65
2022/03/07 02:06:24;;;;;;;;;;;;;;;-143.90;100.00;55202.56;2096986;28;19982;-64
2022/03/07 02:07:45;;;;;;;;;;;;;;;-143.90;100.00;55218.44;2112855;27;19925;-63
2022/03/07 02:09:07;;;;;;;;;;;;;;;-143.90;100.00;55164.84;2103840;27;20329;-65
2022/03/07 02:10:32;;;;;;;;;;;;;;;-143.90;100.00;55190.66;2097568;28;20418;-64
2022/03/07 02:11:59;;;;;;;;;;;;;;;-143.90;100.00;55198.59;2095413;28;19928;-64
2022/03/07 02:13:21;;;;;;;;;;;;;;;-143.90;100.00;55174.75;2109498;27;19919;-64
2022/03/07 02:14:46;;;;;;;;;;;;;;;-143.90;100.00;55178.72;2098594;28;19920;-64
2022/03/07 02:16:06;;;;;;;;;;;;;;;-143.90;100.00;55210.50;2097664;28;19932;-64
2022/03/07 02:17:29;;;;;;;;;;;;;;;-143.90;100.00;55182.69;2096247;28;20833;-65
2022/03/07 02:18:51;;;;;;;;;;;;;;;-143.90;100.00;55166.81;2096568;28;20422;-64
2022/03/07 02:20:24;;;;;;;;;;;;;;;-143.90;100.00;55202.56;2095581;28;19920;-64
2022/03/07 02:21:46;;;;;;;;;;;;;;;-143.90;100.00;55198.59;2097518;28;20486;-64
2022/03/07 02:23:10;;;;;;;;;;;;;;;-143.90;100.00;55210.50;2111950;27;19962;-64
2022/03/07 02:24:30;;;;;;;;;;;;;;;-143.90;100.00;55194.63;2102142;28;19920;-62
2022/03/07 02:25:59;;;;;;;;;;;;;;;-143.90;100.00;55206.53;2111437;27;20336;-64
2022/03/07 02:27:19;;;;;;;;;;;;;;;-143.90;100.00;55176.75;2098536;28;20365;-64
2022/03/07 02:28:44;;;;;;;;;;;;;;;-143.90;100.00;55202.56;2087807;28;20011;-64
2022/03/07 02:30:06;;;;;;;;;;;;;;;-143.90;100.00;55206.53;2094785;28;19920;-64
2022/03/07 02:31:29;;;;;;;;;;;;;;;-143.90;100.00;55212.50;2080810;28;19921;-64
2022/03/07 02:32:51;;;;;;;;;;;;;;;-143.90;100.00;55202.56;2079576;28;19926;-64
2022/03/07 02:34:12;;;;;;;;;;;;;;;-143.90;100.00;55190.66;2088086;28;19924;-64
2022/03/07 02:35:33;;;;;;;;;;;;;;;-143.90;100.00;55156.88;2095875;28;19921;-64
2022/03/07 02:36:53;;;;;;;;;;;;;;;-143.90;100.00;55222.41;2091821;28;19920;-64
2022/03/07 02:38:16;;;;;;;;;;;;;;;-143.90;100.00;55226.38;2090484;28;19925;-64
2022/03/07 02:39:40;;;;;;;;;;;;;;;-143.90;100.00;55194.63;2081732;28;19931;-64
2022/03/07 02:41:00;;;;;;;;;;;;;;;-143.90;100.00;55214.47;2080678;28;19979;-65
2022/03/07 02:42:21;;;;;;;;;;;;;;;-143.90;100.00;55246.25;2094490;28;19931;-64
2022/03/07 02:43:43;;;;;;;;;;;;;;;-143.90;100.00;55182.69;2083087;28;19920;-65
2022/03/07 02:45:05;;;;;;;;;;;;;;;-143.90;100.00;55202.56;2086356;28;19926;-64
2022/03/07 02:46:26;;;;;;;;;;;;;;;-143.90;100.00;55150.94;2089941;28;19920;-65
2022/03/07 02:47:46;;;;;;;;;;;;;;;-143.90;100.00;55222.41;2097234;28;19951;-64
2022/03/07 02:49:07;;;;;;;;;;;;;;;-143.90;100.00;55246.25;2092043;28;20419;-65
2022/03/07 02:50:28;;;;;;;;;;;;;;;-143.90;100.00;55206.53;2095906;28;20019;-64
2022/03/07 02:51:49;;;;;;;;;;;;;;;-143.90;100.00;55226.38;2091878;28;20043;-65
2022/03/07 02:53:10;;;;;;;;;;;;;;;-143.90;100.00;55182.69;2083718;28;19924;-64
2022/03/07 02:54:31;;;;;;;;;;;;;;;-143.90;100.00;55234.31;2093645;28;19920;-64
2022/03/07 02:55:52;;;;;;;;;;;;;;;-143.90;100.00;55240.28;2091346;28;19921;-64
2022/03/07 02:57:13;;;;;;;;;;;;;;;-143.90;100.00;55194.63;2090197;28;20391;-62
2022/03/07 02:58:33;;;;;;;;;;;;;;;-143.90;100.00;55216.47;2089965;28;19924;-64
2022/03/07 02:59:54;;;;;;;;;;;;;;;-143.90;100.00;55178.72;2090754;28;19924;-64
2022/03/07 03:01:15;;;;;;;;;;;;;;;-143.90;100.00;55220.44;2089364;28;20126;-65
2022/03/07 03:02:36;;;;;;;;;;;;;;;-143.90;100.00;55206.53;2079362;28;19921;-65
2022/03/07 03:03:56;;;;;;;;;;;;;;;-143.90;100.00;55139.03;2085819;28;20002;-65
2022/03/07 03:05:17;;;;;;;;;;;;;;;-143.90;100.00;55198.59;2086359;28;19924;-64
2022/03/07 03:06:38;;;;;;;;;;;;;;;-143.90;100.00;55172.78;2089437;28;19931;-64
2022/03/07 03:07:58;;;;;;;;;;;;;;;-143.90;100.00;55190.66;2089403;28;19931;-65
2022/03/07 03:09:19;;;;;;;;;;;;;;;-143.90;100.00;55202.56;2088018;28;19921;-65
2022/03/07 03:10:40;;;;;;;;;;;;;;;-143.90;100.00;55214.47;2090183;28;19921;-64
2022/03/07 03:12:00;;;;;;;;;;;;;;;-143.90;100.00;55230.34;2087161;28;20459;-65
2022/03/07 03:13:22;;;;;;;;;;;;;;;-143.90;100.00;55194.63;2088727;28;19925;-65
2022/03/07 03:14:45;;;;;;;;;;;;;;;-143.90;100.00;55190.66;2088748;28;19931;-64
2022/03/07 03:16:06;;;;;;;;;;;;;;;-143.90;100.00;55196.59;2090005;28;19924;-63
2022/03/07 03:17:27;;;;;;;;;;;;;;;-143.90;100.00;55202.56;2089940;28;20414;-64
2022/03/07 03:18:47;;;;;;;;;;;;;;;-143.90;100.00;55208.50;2089776;28;19935;-64
2022/03/07 03:20:11;;;;;;;;;;;;;;;-143.90;100.00;55198.59;2087270;28;19925;-64
2022/03/07 03:21:31;;;;;;;;;;;;;;;-143.90;100.00;55168.81;2088170;28;19951;-65
2022/03/07 03:22:52;;;;;;;;;;;;;;;-143.90;100.00;55182.69;2090030;28;19928;-64
2022/03/07 03:24:13;;;;;;;;;;;;;;;-143.90;100.00;55202.56;2087967;28;19924;-65
2022/03/07 03:25:33;;;;;;;;;;;;;;;-143.90;100.00;55206.53;2089585;28;19944;-64
2022/03/07 03:26:54;;;;;;;;;;;;;;;-143.90;100.00;55246.25;2088340;28;20447;-64
2022/03/07 03:28:15;;;;;;;;;;;;;;;-143.90;100.00;55202.56;2089648;28;19925;-64
2022/03/07 03:29:35;;;;;;;;;;;;;;;-143.90;100.00;55198.59;2087371;28;19991;-65
2022/03/07 03:30:56;;;;;;;;;;;;;;;-143.90;100.00;55166.81;2087835;28;20312;-64
2022/03/07 03:32:17;;;;;;;;;;;;;;;-143.90;100.00;55234.31;2089044;28;19928;-65
2022/03/07 03:33:38;;;;;;;;;;;;;;;-143.90;100.00;55210.50;2089778;28;19960;-64
2022/03/07 03:34:59;;;;;;;;;;;;;;;-143.90;100.00;55174.75;2089242;28;19931;-64
2022/03/07 03:36:19;;;;;;;;;;;;;;;-143.90;100.00;55218.44;2088892;28;20459;-64
2022/03/07 03:37:40;;;;;;;;;;;;;;;-143.90;100.00;55206.53;2089243;28;19921;-64
2022/03/07 03:39:01;;;;;;;;;;;;;;;-143.90;100.00;55206.53;2088017;28;19921;-64
2022/03/07 03:40:22;;;;;;;;;;;;;;;-143.90;100.00;55194.63;2089081;28;19920;-64
2022/03/07 03:41:43;;;;;;;;;;;;;;;-143.90;100.00;55194.63;2088304;28;19943;-65
2022/03/07 03:43:03;;;;;;;;;;;;;;;-143.90;100.00;55202.56;2087519;28;19924;-62
2022/03/07 03:44:24;;;;;;;;;;;;;;;-143.90;100.00;55206.53;2089178;28;19928;-64
2022/03/07 03:45:45;;;;;;;;;;;;;;;-143.90;100.00;55214.47;2088949;28;19920;-64
2022/03/07 03:47:05;;;;;;;;;;;;;;;-143.90;100.00;55170.78;2087970;28;19928;-64
2022/03/07 03:48:26;;;;;;;;;;;;;;;-143.90;100.00;55194.63;2089380;28;19920;-66
2022/03/07 03:49:47;;;;;;;;;;;;;;;-143.90;100.00;55196.59;2089209;28;19928;-65
2022/03/07 03:51:08;;;;;;;;;;;;;;;-143.90;100.00;55212.50;2087324;28;20494;-64
2022/03/07 03:52:28;;;;;;;;;;;;;;;-143.90;100.00;55206.53;2089552;28;19960;-65
2022/03/07 03:53:50;;;;;;;;;;;;;;;-143.90;100.00;55184.69;2089621;28;20382;-62
2022/03/07 03:55:11;;;;;;;;;;;;;;;-143.90;100.00;55202.56;2088113;28;19924;-65
2022/03/07 03:56:32;;;;;;;;;;;;;;;-143.90;100.00;55230.34;2088583;28;19927;-64
2022/03/07 03:57:52;;;;;;;;;;;;;;;-143.90;100.00;55202.56;2088987;28;19924;-63
2022/03/07 03:59:14;;;;;;;;;;;;;;;-143.90;100.00;55178.72;2089738;28;19984;-65
2022/03/07 04:00:35;;;;;;;;;;;;;;;-143.90;100.00;55214.47;2089576;28;19960;-65
2022/03/07 04:01:55;;;;;;;;;;;;;;;-143.90;100.00;55248.22;2088433;28;19927;-64
2022/03/07 04:03:16;;;;;;;;;;;;;;;-143.90;100.00;55220.44;2087073;28;19928;-63
2022/03/07 04:04:37;;;;;;;;;;;;;;;-143.90;100.00;55244.25;2089355;28;20391;-65
2022/03/07 04:05:58;;;;;;;;;;;;;;;-143.90;100.00;55200.56;2089331;28;19930;-64
2022/03/07 04:07:18;;;;;;;;;;;;;;;-143.90;100.00;55230.34;2090200;28;20063;-62
2022/03/07 04:08:39;;;;;;;;;;;;;;;-143.90;100.00;55210.50;2089157;28;19920;-65
2022/03/07 04:10:06;;;;;;;;;;;;;;;-143.90;100.00;55204.53;2090683;28;19920;-64
2022/03/07 04:11:26;;;;;;;;;;;;;;;-143.90;100.00;55196.59;2091813;27;20035;-65
2022/03/07 04:12:47;;;;;;;;;;;;;;;-143.90;100.00;55218.44;2090926;28;19927;-62
2022/03/07 04:14:07;;;;;;;;;;;;;;;-143.90;100.00;55214.47;2090282;28;19924;-65
2022/03/07 04:15:28;;;;;;;;;;;;;;;-143.90;100.00;55182.69;2090515;28;19940;-65
2022/03/07 04:16:49;;;;;;;;;;;;;;;-143.90;100.00;55198.59;2091294;28;19957;-64
2022/03/07 04:18:10;;;;;;;;;;;;;;;-143.90;100.00;55186.69;2082375;28;19929;-63
2022/03/07 04:19:31;;;;;;;;;;;;;;;-143.90;100.00;55194.63;2087690;28;20319;-65
2022/03/07 04:20:51;;;;;;;;;;;;;;;-143.90;100.00;55186.69;2088428;28;20304;-63
2022/03/07 04:22:12;;;;;;;;;;;;;;;-143.90;100.00;55206.53;2090260;28;19920;-63
2022/03/07 04:23:33;;;;;;;;;;;;;;;-143.90;100.00;55186.69;2091173;28;19920;-63
2022/03/07 04:24:54;;;;;;;;;;;;;;;-143.90;100.00;55224.41;2090095;28;19925;-62
2022/03/07 04:26:16;;;;;;;;;;;;;;;-143.90;100.00;55182.69;2097547;28;19920;-63
2022/03/07 04:27:36;;;;;;;;;;;;;;;-143.90;100.00;55222.41;2092320;28;19936;-63
2022/03/07 04:28:57;;;;;;;;;;;;;;;-143.90;100.00;55230.34;2081217;28;20580;-62
2022/03/07 04:30:18;;;;;;;;;;;;;;;-143.90;100.00;55212.50;2087857;28;19987;-63
2022/03/07 04:31:39;;;;;;;;;;;;;;;-143.90;100.00;55194.63;2089678;28;19942;-63
2022/03/07 04:33:00;;;;;;;;;;;;;;;-143.90;100.00;55218.44;2089806;28;19924;-63
2022/03/07 04:34:21;;;;;;;;;;;;;;;-143.90;100.00;55188.66;2096475;28;19924;-64
2022/03/07 04:35:41;;;;;;;;;;;;;;;-143.90;100.00;55174.75;2090132;28;19954;-63
2022/03/07 04:37:02;;;;;;;;;;;;;;;-143.90;100.00;55212.50;2091187;28;20285;-62
2022/03/07 04:38:26;;;;;;;;;;;;;;;-143.90;100.00;55214.47;2090309;28;19929;-61
2022/03/07 04:39:46;;;;;;;;;;;;;;;-143.90;100.00;55182.69;2088157;28;20364;-63
2022/03/07 04:41:07;;;;;;;;;;;;;;;-143.90;100.00;55226.38;2089818;28;21135;-63
2022/03/07 04:42:28;;;;;;;;;;;;;;;-143.90;100.00;55190.66;2090285;28;19942;-62
2022/03/07 04:43:48;;;;;;;;;;;;;;;-143.90;100.00;55178.72;2089812;28;20073;-63
2022/03/07 04:45:12;;;;;;;;;;;;;;;-143.90;100.00;55186.69;2089738;28;19987;-62
2022/03/07 04:46:33;;;;;;;;;;;;;;;-143.90;100.00;55208.50;2088440;28;19967;-61
2022/03/07 04:47:54;;;;;;;;;;;;;;;-143.90;100.00;55218.44;2088486;28;19921;-62
2022/03/07 04:49:15;;;;;;;;;;;;;;;-143.90;100.00;55214.47;2089629;28;19956;-63
2022/03/07 04:50:36;;;;;;;;;;;;;;;-143.90;100.00;55210.50;2089723;28;19927;-63
2022/03/07 04:51:57;;;;;;;;;;;;;;;-143.90;100.00;55196.59;2088841;28;19931;-63
2022/03/07 04:53:17;;;;;;;;;;;;;;;-143.90;100.00;55214.47;2090490;28;19989;-63
2022/03/07 04:54:38;;;;;;;;;;;;;;;-143.90;100.00;55190.66;2089107;28;19925;-63
2022/03/07 04:55:59;;;;;;;;;;;;;;;-143.90;100.00;55216.47;2088833;28;19927;-62
2022/03/07 04:57:19;;;;;;;;;;;;;;;-143.90;100.00;55238.31;2089349;28;19923;-63
2022/03/07 04:58:40;;;;;;;;;;;;;;;-143.90;100.00;55238.31;2087801;28;20648;-63
2022/03/07 05:00:01;;;;;;;;;;;;;;;-143.90;100.00;55174.75;2090133;28;19924;-63
2022/03/07 05:01:22;;;;;;;;;;;;;;;-143.90;100.00;55190.66;2089429;28;20219;-64
2022/03/07 05:02:43;;;;;;;;;;;;;;;-143.90;100.00;55232.34;2088312;28;19927;-63
2022/03/07 05:04:03;;;;;;;;;;;;;;;-143.90;100.00;55230.34;2089040;28;19921;-64
2022/03/07 05:05:24;;;;;;;;;;;;;;;-143.90;100.00;55216.47;2090267;28;19924;-63
2022/03/07 05:06:45;;;;;;;;;;;;;;;-143.90;100.00;55198.59;2088395;28;19936;-63
2022/03/07 05:08:05;;;;;;;;;;;;;;;-143.90;100.00;55200.56;2089144;28;20403;-62
2022/03/07 05:09:26;;;;;;;;;;;;;;;-143.90;100.00;55238.31;2088690;28;19920;-64
2022/03/07 05:10:46;;;;;;;;;;;;;;;-143.90;100.00;55210.50;2087523;28;20002;-63
2022/03/07 05:12:08;;;;;;;;;;;;;;;-143.90;100.00;55214.47;2085442;28;19925;-63
2022/03/07 05:13:28;;;;;;;;;;;;;;;-143.90;100.00;55174.75;2089055;28;19921;-63
2022/03/07 05:14:49;;;;;;;;;;;;;;;-143.90;100.00;55218.44;2089620;28;19920;-63
2022/03/07 05:16:11;;;;;;;;;;;;;;;-143.90;100.00;55186.69;2087684;28;19990;-62
2022/03/07 05:17:31;;;;;;;;;;;;;;;-143.90;100.00;55234.31;2087858;28;19920;-63
2022/03/07 05:18:52;;;;;;;;;;;;;;;-143.90;100.00;55194.63;2088249;28;19921;-63
2022/03/07 05:20:12;;;;;;;;;;;;;;;-143.90;100.00;55206.53;2088957;28;19924;-63
2022/03/07 05:21:33;;;;;;;;;;;;;;;-143.90;100.00;55190.66;2088579;28;19944;-63
2022/03/07 05:22:54;;;;;;;;;;;;;;;-143.90;100.00;55188.66;2088092;28;19924;-62
2022/03/07 05:24:14;;;;;;;;;;;;;;;-143.90;100.00;55186.69;2089568;28;19991;-63
2022/03/07 05:25:35;;;;;;;;;;;;;;;-143.90;100.00;55202.56;2088491;28;19921;-62
2022/03/07 05:26:56;;;;;;;;;;;;;;;-143.90;100.00;55226.38;2088773;28;20391;-62
2022/03/07 05:28:16;;;;;;;;;;;;;;;-143.90;100.00;55224.41;2089082;28;20058;-63
2022/03/07 05:29:37;;;;;;;;;;;;;;;-143.90;100.00;55214.47;2087966;28;19976;-62
2022/03/07 05:30:58;;;;;;;;;;;;;;;-143.90;100.00;55240.28;2087751;28;20031;-63
2022/03/07 05:32:19;;;;;;;;;;;;;;;-143.90;100.00;55230.34;2087132;28;20007;-64
2022/03/07 05:33:40;;;;;;;;;;;;;;;-143.90;100.00;55180.72;2087599;28;19920;-63
2022/03/07 05:35:01;;;;;;;;;;;;;;;-143.90;100.00;55214.47;2088219;28;19917;-63
2022/03/07 05:36:22;;;;;;;;;;;;;;;-143.90;100.00;55194.63;2088135;28;20011;-63
2022/03/07 05:37:43;;;;;;;;;;;;;;;-143.90;100.00;55210.50;2088589;28;20526;-63
2022/03/07 05:39:04;;;;;;;;;;;;;;;-143.90;100.00;55218.44;2088431;28;20007;-63
2022/03/07 05:40:25;;;;;;;;;;;;;;;-143.90;100.00;55202.56;2096657;28;19956;-62
2022/03/07 05:41:45;;;;;;;;;;;;;;;-143.90;100.00;55194.63;2091447;28;19920;-62
2022/03/07 05:43:06;;;;;;;;;;;;;;;-143.90;100.00;55214.47;2088175;28;19917;-63
2022/03/07 05:44:26;;;;;;;;;;;;;;;-143.90;100.00;55242.28;2089194;28;19920;-62
2022/03/07 05:45:47;;;;;;;;;;;;;;;-143.90;100.00;55198.59;2088668;28;20581;-63
2022/03/07 05:47:08;;;;;;;;;;;;;;;-143.90;100.00;55230.34;2095806;28;19932;-62
2022/03/07 05:48:28;;;;;;;;;;;;;;;-143.90;100.00;55174.75;2091120;28;19924;-62
2022/03/07 05:49:49;;;;;;;;;;;;;;;-143.90;100.00;55194.63;2088660;28;20307;-64
2022/03/07 05:51:10;;;;;;;;;;;;;;;-143.90;100.00;55198.59;2090405;28;20561;-62
2022/03/07 05:52:31;;;;;;;;;;;;;;;-143.90;100.00;55214.47;2080551;28;20601;-62
2022/03/07 05:53:52;;;;;;;;;;;;;;;-143.90;100.00;55194.63;2080255;28;20020;-62
2022/03/07 05:55:13;;;;;;;;;;;;;;;-143.90;100.00;55222.41;2084622;28;20493;-62
2022/03/07 05:56:33;;;;;;;;;;;;;;;-143.90;100.00;55214.47;2088011;28;19986;-62
2022/03/07 05:57:59;;;;;;;;;;;;;;;-143.90;100.00;55206.53;2088939;28;19916;-62
2022/03/07 05:59:20;;;;;;;;;;;;;;;-143.90;100.00;55206.53;2088172;28;19928;-63
2022/03/07 06:00:40;;;;;;;;;;;;;;;-143.90;100.00;55190.66;2089663;28;19920;-62
2022/03/07 06:02:01;;;;;;;;;;;;;;;-143.90;100.00;55210.50;2088281;28;19917;-62
2022/03/07 06:03:22;;;;;;;;;;;;;;;-143.90;100.00;55198.59;2088137;28;20002;-62
2022/03/07 06:04:44;;;;;;;;;;;;;;;-143.90;100.00;55202.56;2087762;28;20019;-62
2022/03/07 06:06:04;;;;;;;;;;;;;;;-143.90;100.00;55176.75;2088287;28;19960;-60
2022/03/07 06:07:25;;;;;;;;;;;;;;;-143.90;100.00;55242.28;2088081;28;19920;-63
2022/03/07 06:08:46;;;;;;;;;;;;;;;-143.90;100.00;55170.78;2088476;28;19921;-61
2022/03/07 06:10:06;;;;;;;;;;;;;;;-143.90;100.00;55188.66;2087504;28;19939;-65
2022/03/07 06:11:27;;;;;;;;;;;;;;;-143.90;100.00;55194.63;2088300;28;19927;-63
2022/03/07 06:12:48;;;;;;;;;;;;;;;-143.90;100.00;55162.84;2087179;28;19928;-63
2022/03/07 06:14:10;;;;;;;;;;;;;;;-143.90;100.00;55194.63;2088756;28;19929;-63
2022/03/07 06:15:30;;;;;;;;;;;;;;;-143.90;100.00;55190.66;2089917;28;19923;-63
2022/03/07 06:16:51;;;;;;;;;;;;;;;-143.90;100.00;55224.41;2088839;28;19922;-63
2022/03/07 06:18:11;;;;;;;;;;;;;;;-143.90;100.00;55200.56;2087956;28;19928;-63
2022/03/07 06:19:32;;;;;;;;;;;;;;;-143.90;100.00;55202.56;2088339;28;19921;-62
2022/03/07 06:20:53;;;;;;;;;;;;;;;-143.90;100.00;55206.53;2088432;28;19990;-63
2022/03/07 06:22:14;;;;;;;;;;;;;;;-143.90;100.00;55216.47;2088667;28;20376;-61
2022/03/07 06:23:36;;;;;;;;;;;;;;;-143.90;100.00;55202.56;2087848;28;19994;-63
2022/03/07 06:24:56;;;;;;;;;;;;;;;-143.90;100.00;55222.41;2087830;28;19931;-62
2022/03/07 06:26:17;;;;;;;;;;;;;;;-143.90;100.00;55242.28;2088657;28;19991;-61
2022/03/07 06:27:38;;;;;;;;;;;;;;;-143.90;100.00;55218.44;2092823;28;19924;-63
2022/03/07 06:29:00;;;;;;;;;;;;;;;-143.90;100.00;55224.41;2096963;28;20731;-63
2022/03/07 06:30:21;;;;;;;;;;;;;;;-143.90;100.00;55198.59;2088508;28;19958;-62
2022/03/07 06:31:42;;;;;;;;;;;;;;;-143.90;100.00;55186.69;2094955;28;19919;-62
2022/03/07 06:33:02;;;;;;;;;;;;;;;-143.90;100.00;55206.53;2097817;28;20014;-63
2022/03/07 06:34:23;;;;;;;;;;;;;;;-143.90;100.00;55226.38;2104478;28;20017;-63
2022/03/07 06:35:44;;;;;;;;;;;;;;;-143.90;100.00;55186.69;2099802;28;20276;-61
2022/03/07 06:37:05;;;;;;;;;;;;;;;-143.90;100.00;55202.56;2096599;28;19916;-62
2022/03/07 06:38:25;;;;;;;;;;;;;;;-143.90;100.00;55186.69;2096199;28;19924;-62
2022/03/07 06:39:46;;;;;;;;;;;;;;;-143.90;100.00;55178.72;2097180;28;19916;-60
2022/03/07 06:41:07;;;;;;;;;;;;;;;-143.90;100.00;55188.66;2095958;28;19927;-62
2022/03/07 06:42:27;;;;;;;;;;;;;;;-143.90;100.00;55150.94;2096620;28;19924;-62
2022/03/07 06:43:48;;;;;;;;;;;;;;;-143.90;100.00;55208.50;2095936;28;19923;-62
2022/03/07 06:45:12;;;;;;;;;;;;;;;-143.90;100.00;55214.47;2097416;28;19920;-62
2022/03/07 06:46:32;;;;;;;;;;;;;;;-143.90;100.00;55194.63;2087929;28;20383;-62